sensor_id;sensor_type;location;lat;lon;timestamp;P1;durP1;ratioP1;P2;durP2;ratioP2
73699;SDS011;62005;50.082;8.988;2022-07-29T00:01:17;2.55;;;0.45;;
73699;SDS011;62005;50.082;8.988;2022-07-29T00:03:42;3.67;;;0.50;;
73699;SDS011;62005;50.082;8.988;2022-07-29T00:06:08;3.33;;;0.50;;
73699;SDS011;62005;50.082;8.988;2022-07-29T00:08:33;2.35;;;0.45;;
73699;SDS011;62005;50.082;8.988;2022-07-29T00:10:58;2.07;;;0.37;;
73699;SDS011;62005;50.082;8.988;2022-07-29T00:13:24;2.20;;;0.70;;
73699;SDS011;62005;50.082;8.988;2022-07-29T00:15:49;2.40;;;0.40;;
73699;SDS011;62005;50.082;8.988;2022-07-29T00:18:14;3.57;;;0.60;;
73699;SDS011;62005;50.082;8.988;2022-07-29T00:20:40;2.60;;;0.67;;
73699;SDS011;62005;50.082;8.988;2022-07-29T00:23:05;2.40;;;0.50;;
73699;SDS011;62005;50.082;8.988;2022-07-29T00:25:30;1.90;;;0.40;;
73699;SDS011;62005;50.082;8.988;2022-07-29T00:27:55;1.10;;;0.30;;
73699;SDS011;62005;50.082;8.988;2022-07-29T00:30:22;1.93;;;0.27;;
73699;SDS011;62005;50.082;8.988;2022-07-29T00:32:48;1.92;;;0.30;;
73699;SDS011;62005;50.082;8.988;2022-07-29T00:35:13;2.23;;;0.30;;
73699;SDS011;62005;50.082;8.988;2022-07-29T00:37:57;1.85;;;0.17;;
73699;SDS011;62005;50.082;8.988;2022-07-29T00:40:22;1.73;;;0.23;;
73699;SDS011;62005;50.082;8.988;2022-07-29T00:42:51;1.30;;;0.40;;
73699;SDS011;62005;50.082;8.988;2022-07-29T00:45:17;2.67;;;0.30;;
73699;SDS011;62005;50.082;8.988;2022-07-29T00:47:42;4.10;;;0.30;;
73699;SDS011;62005;50.082;8.988;2022-07-29T00:50:09;1.88;;;0.30;;
73699;SDS011;62005;50.082;8.988;2022-07-29T00:52:36;3.30;;;0.40;;
73699;SDS011;62005;50.082;8.988;2022-07-29T00:55:03;2.67;;;0.40;;
73699;SDS011;62005;50.082;8.988;2022-07-29T00:57:30;4.93;;;0.38;;
73699;SDS011;62005;50.082;8.988;2022-07-29T00:59:57;2.55;;;0.30;;
73699;SDS011;62005;50.082;8.988;2022-07-29T01:02:22;2.38;;;0.20;;
73699;SDS011;62005;50.082;8.988;2022-07-29T01:04:48;2.53;;;0.30;;
73699;SDS011;62005;50.082;8.988;2022-07-29T01:07:14;2.97;;;0.10;;
73699;SDS011;62005;50.082;8.988;2022-07-29T01:09:40;3.30;;;0.38;;
73699;SDS011;62005;50.082;8.988;2022-07-29T01:12:07;5.22;;;0.57;;
73699;SDS011;62005;50.082;8.988;2022-07-29T01:14:32;1.70;;;0.50;;
73699;SDS011;62005;50.082;8.988;2022-07-29T01:17:04;3.97;;;0.30;;
73699;SDS011;62005;50.082;8.988;2022-07-29T01:22:26;3.25;;;0.60;;
73699;SDS011;62005;50.082;8.988;2022-07-29T01:30:08;3.00;;;0.45;;
73699;SDS011;62005;50.082;8.988;2022-07-29T01:32:36;4.47;;;0.45;;
73699;SDS011;62005;50.082;8.988;2022-07-29T01:35:23;3.50;;;0.55;;
73699;SDS011;62005;50.082;8.988;2022-07-29T01:40:43;1.55;;;0.30;;
73699;SDS011;62005;50.082;8.988;2022-07-29T01:43:14;2.00;;;0.38;;
73699;SDS011;62005;50.082;8.988;2022-07-29T01:45:45;2.92;;;0.20;;
73699;SDS011;62005;50.082;8.988;2022-07-29T01:48:27;3.42;;;0.40;;
73699;SDS011;62005;50.082;8.988;2022-07-29T01:51:05;4.10;;;0.30;;
73699;SDS011;62005;50.082;8.988;2022-07-29T01:53:46;3.90;;;0.35;;
73699;SDS011;62005;50.082;8.988;2022-07-29T01:56:18;4.80;;;0.57;;
73699;SDS011;62005;50.082;8.988;2022-07-29T01:58:46;3.72;;;0.43;;
73699;SDS011;62005;50.082;8.988;2022-07-29T02:01:14;2.15;;;0.30;;
73699;SDS011;62005;50.082;8.988;2022-07-29T02:06:08;2.33;;;0.30;;
73699;SDS011;62005;50.082;8.988;2022-07-29T02:08:36;1.77;;;0.50;;
73699;SDS011;62005;50.082;8.988;2022-07-29T02:11:03;3.20;;;0.40;;
73699;SDS011;62005;50.082;8.988;2022-07-29T02:13:30;2.75;;;0.40;;
73699;SDS011;62005;50.082;8.988;2022-07-29T02:15:57;4.53;;;0.50;;
73699;SDS011;62005;50.082;8.988;2022-07-29T02:18:25;2.50;;;0.32;;
73699;SDS011;62005;50.082;8.988;2022-07-29T02:20:54;4.07;;;0.25;;
73699;SDS011;62005;50.082;8.988;2022-07-29T02:23:22;2.95;;;0.40;;
73699;SDS011;62005;50.082;8.988;2022-07-29T02:25:49;1.63;;;0.40;;
73699;SDS011;62005;50.082;8.988;2022-07-29T02:28:18;1.92;;;0.30;;
73699;SDS011;62005;50.082;8.988;2022-07-29T02:30:45;1.27;;;0.32;;
73699;SDS011;62005;50.082;8.988;2022-07-29T02:33:12;2.60;;;0.40;;
73699;SDS011;62005;50.082;8.988;2022-07-29T02:35:40;2.92;;;0.40;;
73699;SDS011;62005;50.082;8.988;2022-07-29T02:38:09;4.82;;;0.35;;
73699;SDS011;62005;50.082;8.988;2022-07-29T02:40:57;1.13;;;0.30;;
73699;SDS011;62005;50.082;8.988;2022-07-29T02:43:25;6.93;;;0.52;;
73699;SDS011;62005;50.082;8.988;2022-07-29T02:45:52;2.95;;;0.30;;
73699;SDS011;62005;50.082;8.988;2022-07-29T02:48:20;1.35;;;0.32;;
73699;SDS011;62005;50.082;8.988;2022-07-29T02:50:54;2.22;;;0.25;;
73699;SDS011;62005;50.082;8.988;2022-07-29T02:53:32;3.17;;;0.45;;
73699;SDS011;62005;50.082;8.988;2022-07-29T02:56:00;2.05;;;0.45;;
73699;SDS011;62005;50.082;8.988;2022-07-29T02:58:33;1.27;;;0.28;;
73699;SDS011;62005;50.082;8.988;2022-07-29T03:01:08;2.60;;;0.47;;
73699;SDS011;62005;50.082;8.988;2022-07-29T03:03:38;1.90;;;0.30;;
73699;SDS011;62005;50.082;8.988;2022-07-29T03:06:07;1.92;;;0.40;;
73699;SDS011;62005;50.082;8.988;2022-07-29T03:08:33;4.57;;;0.40;;
73699;SDS011;62005;50.082;8.988;2022-07-29T03:10:59;5.57;;;0.47;;
73699;SDS011;62005;50.082;8.988;2022-07-29T03:13:26;1.75;;;0.60;;
73699;SDS011;62005;50.082;8.988;2022-07-29T03:15:53;7.32;;;0.63;;
73699;SDS011;62005;50.082;8.988;2022-07-29T03:18:18;2.92;;;0.50;;
73699;SDS011;62005;50.082;8.988;2022-07-29T03:20:44;4.70;;;0.65;;
73699;SDS011;62005;50.082;8.988;2022-07-29T03:23:10;2.67;;;0.50;;
73699;SDS011;62005;50.082;8.988;2022-07-29T03:25:35;1.95;;;0.55;;
73699;SDS011;62005;50.082;8.988;2022-07-29T03:28:00;3.40;;;0.30;;
73699;SDS011;62005;50.082;8.988;2022-07-29T03:30:26;4.30;;;0.47;;
73699;SDS011;62005;50.082;8.988;2022-07-29T03:32:52;3.80;;;0.45;;
73699;SDS011;62005;50.082;8.988;2022-07-29T03:35:18;2.15;;;0.30;;
73699;SDS011;62005;50.082;8.988;2022-07-29T03:40:12;1.58;;;0.45;;
73699;SDS011;62005;50.082;8.988;2022-07-29T03:42:43;4.22;;;0.40;;
73699;SDS011;62005;50.082;8.988;2022-07-29T03:45:12;5.22;;;0.43;;
73699;SDS011;62005;50.082;8.988;2022-07-29T03:47:45;3.88;;;0.45;;
73699;SDS011;62005;50.082;8.988;2022-07-29T03:50:15;2.53;;;0.40;;
73699;SDS011;62005;50.082;8.988;2022-07-29T03:52:41;3.30;;;0.25;;
73699;SDS011;62005;50.082;8.988;2022-07-29T03:55:07;3.72;;;0.57;;
73699;SDS011;62005;50.082;8.988;2022-07-29T03:57:34;1.65;;;0.45;;
73699;SDS011;62005;50.082;8.988;2022-07-29T04:00:01;1.85;;;0.45;;
73699;SDS011;62005;50.082;8.988;2022-07-29T04:02:29;2.05;;;0.50;;
73699;SDS011;62005;50.082;8.988;2022-07-29T04:04:56;1.63;;;0.40;;
73699;SDS011;62005;50.082;8.988;2022-07-29T04:07:21;1.55;;;0.30;;
73699;SDS011;62005;50.082;8.988;2022-07-29T04:09:47;1.30;;;0.20;;
73699;SDS011;62005;50.082;8.988;2022-07-29T04:12:12;2.03;;;0.40;;
73699;SDS011;62005;50.082;8.988;2022-07-29T04:14:37;2.43;;;0.40;;
73699;SDS011;62005;50.082;8.988;2022-07-29T04:17:03;4.90;;;0.50;;
73699;SDS011;62005;50.082;8.988;2022-07-29T04:19:29;4.10;;;0.60;;
73699;SDS011;62005;50.082;8.988;2022-07-29T04:21:55;2.88;;;0.50;;
73699;SDS011;62005;50.082;8.988;2022-07-29T04:24:21;6.25;;;0.45;;
73699;SDS011;62005;50.082;8.988;2022-07-29T04:26:46;2.27;;;0.87;;
73699;SDS011;62005;50.082;8.988;2022-07-29T04:29:12;4.80;;;0.95;;
73699;SDS011;62005;50.082;8.988;2022-07-29T04:31:39;3.80;;;0.50;;
73699;SDS011;62005;50.082;8.988;2022-07-29T04:34:05;1.95;;;0.55;;
73699;SDS011;62005;50.082;8.988;2022-07-29T04:36:30;2.97;;;0.70;;
73699;SDS011;62005;50.082;8.988;2022-07-29T04:38:56;1.80;;;0.40;;
73699;SDS011;62005;50.082;8.988;2022-07-29T04:41:21;3.47;;;0.60;;
73699;SDS011;62005;50.082;8.988;2022-07-29T04:43:47;1.97;;;0.30;;
73699;SDS011;62005;50.082;8.988;2022-07-29T04:46:12;2.38;;;0.40;;
73699;SDS011;62005;50.082;8.988;2022-07-29T04:48:37;6.07;;;0.97;;
73699;SDS011;62005;50.082;8.988;2022-07-29T04:51:02;4.53;;;0.50;;
73699;SDS011;62005;50.082;8.988;2022-07-29T04:53:28;2.42;;;0.65;;
73699;SDS011;62005;50.082;8.988;2022-07-29T04:55:53;2.42;;;0.50;;
73699;SDS011;62005;50.082;8.988;2022-07-29T04:58:19;2.47;;;0.32;;
73699;SDS011;62005;50.082;8.988;2022-07-29T05:00:44;5.30;;;0.50;;
73699;SDS011;62005;50.082;8.988;2022-07-29T05:03:09;2.03;;;0.30;;
73699;SDS011;62005;50.082;8.988;2022-07-29T05:05:35;1.70;;;0.33;;
73699;SDS011;62005;50.082;8.988;2022-07-29T05:08:00;2.23;;;0.37;;
73699;SDS011;62005;50.082;8.988;2022-07-29T05:10:25;3.10;;;0.53;;
73699;SDS011;62005;50.082;8.988;2022-07-29T05:12:51;2.83;;;0.47;;
73699;SDS011;62005;50.082;8.988;2022-07-29T05:15:16;2.33;;;0.30;;
73699;SDS011;62005;50.082;8.988;2022-07-29T05:17:42;3.15;;;0.43;;
73699;SDS011;62005;50.082;8.988;2022-07-29T05:20:08;2.22;;;0.45;;
73699;SDS011;62005;50.082;8.988;2022-07-29T05:22:34;3.90;;;0.40;;
73699;SDS011;62005;50.082;8.988;2022-07-29T05:24:59;3.17;;;0.80;;
73699;SDS011;62005;50.082;8.988;2022-07-29T05:27:24;1.53;;;0.30;;
73699;SDS011;62005;50.082;8.988;2022-07-29T05:29:50;3.65;;;0.70;;
73699;SDS011;62005;50.082;8.988;2022-07-29T05:32:15;5.53;;;0.30;;
73699;SDS011;62005;50.082;8.988;2022-07-29T05:34:41;2.85;;;0.32;;
73699;SDS011;62005;50.082;8.988;2022-07-29T05:37:06;2.00;;;0.35;;
73699;SDS011;62005;50.082;8.988;2022-07-29T05:39:32;2.92;;;0.38;;
73699;SDS011;62005;50.082;8.988;2022-07-29T05:41:57;4.10;;;0.40;;
73699;SDS011;62005;50.082;8.988;2022-07-29T05:44:22;6.27;;;0.67;;
73699;SDS011;62005;50.082;8.988;2022-07-29T05:46:48;4.75;;;0.40;;
73699;SDS011;62005;50.082;8.988;2022-07-29T05:49:13;3.03;;;0.40;;
73699;SDS011;62005;50.082;8.988;2022-07-29T05:51:39;1.83;;;0.20;;
73699;SDS011;62005;50.082;8.988;2022-07-29T05:54:04;1.10;;;0.30;;
73699;SDS011;62005;50.082;8.988;2022-07-29T05:56:29;2.60;;;0.30;;
73699;SDS011;62005;50.082;8.988;2022-07-29T05:58:55;2.63;;;0.30;;
73699;SDS011;62005;50.082;8.988;2022-07-29T06:01:20;3.40;;;0.53;;
73699;SDS011;62005;50.082;8.988;2022-07-29T06:03:45;1.70;;;0.30;;
73699;SDS011;62005;50.082;8.988;2022-07-29T06:06:11;3.55;;;0.40;;
73699;SDS011;62005;50.082;8.988;2022-07-29T06:08:37;3.75;;;0.52;;
73699;SDS011;62005;50.082;8.988;2022-07-29T06:11:03;2.65;;;0.57;;
73699;SDS011;62005;50.082;8.988;2022-07-29T06:13:29;3.10;;;0.38;;
73699;SDS011;62005;50.082;8.988;2022-07-29T06:15:55;4.90;;;0.35;;
73699;SDS011;62005;50.082;8.988;2022-07-29T06:18:20;2.25;;;0.40;;
73699;SDS011;62005;50.082;8.988;2022-07-29T06:20:48;5.28;;;0.50;;
73699;SDS011;62005;50.082;8.988;2022-07-29T06:23:18;3.05;;;0.52;;
73699;SDS011;62005;50.082;8.988;2022-07-29T06:25:44;3.05;;;0.47;;
73699;SDS011;62005;50.082;8.988;2022-07-29T06:28:09;2.15;;;0.45;;
73699;SDS011;62005;50.082;8.988;2022-07-29T06:30:35;3.10;;;0.40;;
73699;SDS011;62005;50.082;8.988;2022-07-29T06:33:01;3.55;;;0.40;;
73699;SDS011;62005;50.082;8.988;2022-07-29T06:35:27;4.82;;;0.73;;
73699;SDS011;62005;50.082;8.988;2022-07-29T06:37:54;1.88;;;0.20;;
73699;SDS011;62005;50.082;8.988;2022-07-29T06:40:20;4.38;;;0.50;;
73699;SDS011;62005;50.082;8.988;2022-07-29T06:43:05;2.47;;;0.40;;
73699;SDS011;62005;50.082;8.988;2022-07-29T06:45:33;2.13;;;0.52;;
73699;SDS011;62005;50.082;8.988;2022-07-29T06:48:00;3.25;;;0.50;;
73699;SDS011;62005;50.082;8.988;2022-07-29T06:50:25;3.92;;;0.47;;
73699;SDS011;62005;50.082;8.988;2022-07-29T06:52:52;4.53;;;0.57;;
73699;SDS011;62005;50.082;8.988;2022-07-29T06:55:17;13.57;;;0.80;;
73699;SDS011;62005;50.082;8.988;2022-07-29T06:57:44;13.38;;;0.65;;
73699;SDS011;62005;50.082;8.988;2022-07-29T07:00:10;5.30;;;0.55;;
73699;SDS011;62005;50.082;8.988;2022-07-29T07:02:36;4.50;;;0.40;;
73699;SDS011;62005;50.082;8.988;2022-07-29T07:05:01;2.03;;;0.55;;
73699;SDS011;62005;50.082;8.988;2022-07-29T07:07:27;3.17;;;0.40;;
73699;SDS011;62005;50.082;8.988;2022-07-29T07:09:52;2.80;;;0.40;;
73699;SDS011;62005;50.082;8.988;2022-07-29T07:12:17;2.13;;;0.30;;
73699;SDS011;62005;50.082;8.988;2022-07-29T07:14:43;3.97;;;0.57;;
73699;SDS011;62005;50.082;8.988;2022-07-29T07:17:08;3.72;;;0.30;;
73699;SDS011;62005;50.082;8.988;2022-07-29T07:19:34;3.30;;;0.30;;
73699;SDS011;62005;50.082;8.988;2022-07-29T07:21:59;2.85;;;0.32;;
73699;SDS011;62005;50.082;8.988;2022-07-29T07:24:24;3.22;;;0.40;;
73699;SDS011;62005;50.082;8.988;2022-07-29T07:26:51;3.20;;;0.35;;
73699;SDS011;62005;50.082;8.988;2022-07-29T07:29:16;3.75;;;0.50;;
73699;SDS011;62005;50.082;8.988;2022-07-29T07:31:42;3.28;;;0.30;;
73699;SDS011;62005;50.082;8.988;2022-07-29T07:34:08;3.78;;;0.30;;
73699;SDS011;62005;50.082;8.988;2022-07-29T07:36:34;2.30;;;0.30;;
73699;SDS011;62005;50.082;8.988;2022-07-29T07:38:59;4.32;;;0.60;;
73699;SDS011;62005;50.082;8.988;2022-07-29T07:41:25;3.08;;;0.40;;
73699;SDS011;62005;50.082;8.988;2022-07-29T07:43:50;2.85;;;0.43;;
73699;SDS011;62005;50.082;8.988;2022-07-29T07:46:15;2.38;;;0.45;;
73699;SDS011;62005;50.082;8.988;2022-07-29T07:48:41;6.47;;;0.65;;
73699;SDS011;62005;50.082;8.988;2022-07-29T07:51:06;1.98;;;0.30;;
73699;SDS011;62005;50.082;8.988;2022-07-29T07:53:32;3.60;;;0.40;;
73699;SDS011;62005;50.082;8.988;2022-07-29T07:55:58;4.53;;;0.50;;
73699;SDS011;62005;50.082;8.988;2022-07-29T07:58:23;2.95;;;0.40;;
73699;SDS011;62005;50.082;8.988;2022-07-29T08:00:48;3.33;;;0.40;;
73699;SDS011;62005;50.082;8.988;2022-07-29T08:03:14;2.13;;;0.47;;
73699;SDS011;62005;50.082;8.988;2022-07-29T08:05:40;2.17;;;0.30;;
73699;SDS011;62005;50.082;8.988;2022-07-29T08:08:05;2.55;;;0.30;;
73699;SDS011;62005;50.082;8.988;2022-07-29T08:10:31;4.10;;;0.40;;
73699;SDS011;62005;50.082;8.988;2022-07-29T08:13:15;3.75;;;0.30;;
73699;SDS011;62005;50.082;8.988;2022-07-29T08:15:41;2.33;;;0.28;;
73699;SDS011;62005;50.082;8.988;2022-07-29T08:18:09;1.60;;;0.40;;
73699;SDS011;62005;50.082;8.988;2022-07-29T08:20:35;2.83;;;0.50;;
73699;SDS011;62005;50.082;8.988;2022-07-29T08:23:03;2.65;;;0.30;;
73699;SDS011;62005;50.082;8.988;2022-07-29T08:25:29;4.22;;;0.52;;
73699;SDS011;62005;50.082;8.988;2022-07-29T08:27:55;2.35;;;0.38;;
73699;SDS011;62005;50.082;8.988;2022-07-29T08:30:20;4.20;;;0.40;;
73699;SDS011;62005;50.082;8.988;2022-07-29T08:32:47;5.32;;;0.50;;
73699;SDS011;62005;50.082;8.988;2022-07-29T08:35:13;3.28;;;0.40;;
73699;SDS011;62005;50.082;8.988;2022-07-29T08:37:38;2.35;;;0.40;;
73699;SDS011;62005;50.082;8.988;2022-07-29T08:40:04;2.92;;;0.35;;
73699;SDS011;62005;50.082;8.988;2022-07-29T08:42:31;3.17;;;0.30;;
73699;SDS011;62005;50.082;8.988;2022-07-29T08:44:56;4.03;;;0.47;;
73699;SDS011;62005;50.082;8.988;2022-07-29T08:47:22;3.20;;;0.50;;
73699;SDS011;62005;50.082;8.988;2022-07-29T08:49:51;2.55;;;0.32;;
73699;SDS011;62005;50.082;8.988;2022-07-29T08:52:16;2.78;;;0.63;;
73699;SDS011;62005;50.082;8.988;2022-07-29T08:54:44;3.15;;;0.32;;
73699;SDS011;62005;50.082;8.988;2022-07-29T08:57:12;2.50;;;0.47;;
73699;SDS011;62005;50.082;8.988;2022-07-29T08:59:39;3.42;;;0.30;;
73699;SDS011;62005;50.082;8.988;2022-07-29T09:02:09;2.13;;;0.40;;
73699;SDS011;62005;50.082;8.988;2022-07-29T09:04:43;3.20;;;0.30;;
73699;SDS011;62005;50.082;8.988;2022-07-29T09:07:10;4.40;;;0.40;;
73699;SDS011;62005;50.082;8.988;2022-07-29T09:09:40;3.63;;;0.40;;
73699;SDS011;62005;50.082;8.988;2022-07-29T09:12:06;3.58;;;0.20;;
73699;SDS011;62005;50.082;8.988;2022-07-29T09:14:33;1.48;;;0.25;;
73699;SDS011;62005;50.082;8.988;2022-07-29T09:16:58;2.45;;;0.30;;
73699;SDS011;62005;50.082;8.988;2022-07-29T09:19:28;2.67;;;0.47;;
73699;SDS011;62005;50.082;8.988;2022-07-29T09:21:56;3.22;;;0.32;;
73699;SDS011;62005;50.082;8.988;2022-07-29T09:24:23;5.72;;;0.40;;
73699;SDS011;62005;50.082;8.988;2022-07-29T09:27:20;3.60;;;0.40;;
73699;SDS011;62005;50.082;8.988;2022-07-29T09:29:54;4.65;;;0.30;;
73699;SDS011;62005;50.082;8.988;2022-07-29T09:32:22;2.40;;;0.30;;
73699;SDS011;62005;50.082;8.988;2022-07-29T09:34:47;5.07;;;0.52;;
73699;SDS011;62005;50.082;8.988;2022-07-29T09:37:25;3.00;;;0.40;;
73699;SDS011;62005;50.082;8.988;2022-07-29T09:39:51;1.88;;;0.40;;
73699;SDS011;62005;50.082;8.988;2022-07-29T09:42:17;3.83;;;0.40;;
73699;SDS011;62005;50.082;8.988;2022-07-29T09:44:53;2.70;;;0.50;;
73699;SDS011;62005;50.082;8.988;2022-07-29T09:47:18;3.28;;;0.40;;
73699;SDS011;62005;50.082;8.988;2022-07-29T09:49:56;2.10;;;0.30;;
73699;SDS011;62005;50.082;8.988;2022-07-29T09:52:24;2.78;;;0.35;;
73699;SDS011;62005;50.082;8.988;2022-07-29T09:55:03;1.30;;;0.35;;
73699;SDS011;62005;50.082;8.988;2022-07-29T09:59:59;2.08;;;0.30;;
73699;SDS011;62005;50.082;8.988;2022-07-29T10:02:44;2.67;;;0.50;;
73699;SDS011;62005;50.082;8.988;2022-07-29T10:05:19;1.60;;;0.32;;
73699;SDS011;62005;50.082;8.988;2022-07-29T10:07:52;4.25;;;0.40;;
73699;SDS011;62005;50.082;8.988;2022-07-29T10:10:27;3.03;;;0.60;;
73699;SDS011;62005;50.082;8.988;2022-07-29T10:12:58;3.88;;;0.50;;
73699;SDS011;62005;50.082;8.988;2022-07-29T10:15:29;2.78;;;0.40;;
73699;SDS011;62005;50.082;8.988;2022-07-29T10:17:55;3.42;;;0.60;;
73699;SDS011;62005;50.082;8.988;2022-07-29T10:20:22;4.70;;;0.40;;
73699;SDS011;62005;50.082;8.988;2022-07-29T10:22:48;2.72;;;0.40;;
73699;SDS011;62005;50.082;8.988;2022-07-29T10:25:16;3.92;;;0.43;;
73699;SDS011;62005;50.082;8.988;2022-07-29T10:27:42;4.93;;;0.52;;
73699;SDS011;62005;50.082;8.988;2022-07-29T10:30:18;2.72;;;0.30;;
73699;SDS011;62005;50.082;8.988;2022-07-29T10:33:00;4.28;;;0.45;;
73699;SDS011;62005;50.082;8.988;2022-07-29T10:41:01;2.40;;;0.40;;
73699;SDS011;62005;50.082;8.988;2022-07-29T10:43:47;3.40;;;0.40;;
73699;SDS011;62005;50.082;8.988;2022-07-29T10:46:14;2.55;;;0.32;;
73699;SDS011;62005;50.082;8.988;2022-07-29T11:07:23;1.83;;;0.20;;
73699;SDS011;62005;50.082;8.988;2022-07-29T11:15:09;1.30;;;0.20;;
73699;SDS011;62005;50.082;8.988;2022-07-29T11:18:02;2.67;;;0.22;;
73699;SDS011;62005;50.082;8.988;2022-07-29T11:23:28;4.00;;;0.60;;
73699;SDS011;62005;50.082;8.988;2022-07-29T11:26:14;4.03;;;0.32;;
73699;SDS011;62005;50.082;8.988;2022-07-29T11:31:19;2.25;;;0.32;;
73699;SDS011;62005;50.082;8.988;2022-07-29T11:33:57;3.78;;;0.35;;
73699;SDS011;62005;50.082;8.988;2022-07-29T11:47:26;2.58;;;0.35;;
73699;SDS011;62005;50.082;8.988;2022-07-29T11:49:53;2.25;;;0.40;;
73699;SDS011;62005;50.082;8.988;2022-07-29T11:52:19;1.40;;;0.30;;
73699;SDS011;62005;50.082;8.988;2022-07-29T11:54:47;5.47;;;0.30;;
73699;SDS011;62005;50.082;8.988;2022-07-29T11:57:17;1.70;;;0.30;;
73699;SDS011;62005;50.082;8.988;2022-07-29T11:59:45;1.65;;;0.30;;
73699;SDS011;62005;50.082;8.988;2022-07-29T12:02:12;1.30;;;0.30;;
73699;SDS011;62005;50.082;8.988;2022-07-29T12:04:52;4.53;;;0.50;;
73699;SDS011;62005;50.082;8.988;2022-07-29T12:07:26;3.10;;;0.30;;
73699;SDS011;62005;50.082;8.988;2022-07-29T12:09:55;2.17;;;0.40;;
73699;SDS011;62005;50.082;8.988;2022-07-29T12:12:21;2.95;;;0.60;;
73699;SDS011;62005;50.082;8.988;2022-07-29T12:14:46;2.50;;;0.30;;
73699;SDS011;62005;50.082;8.988;2022-07-29T12:17:28;2.10;;;0.38;;
73699;SDS011;62005;50.082;8.988;2022-07-29T12:19:56;2.30;;;0.40;;
73699;SDS011;62005;50.082;8.988;2022-07-29T12:22:27;1.80;;;0.40;;
73699;SDS011;62005;50.082;8.988;2022-07-29T12:24:54;2.92;;;0.43;;
73699;SDS011;62005;50.082;8.988;2022-07-29T12:27:20;1.80;;;0.22;;
73699;SDS011;62005;50.082;8.988;2022-07-29T12:29:55;2.08;;;0.35;;
73699;SDS011;62005;50.082;8.988;2022-07-29T12:32:35;1.83;;;0.50;;
73699;SDS011;62005;50.082;8.988;2022-07-29T12:35:06;3.28;;;0.43;;
73699;SDS011;62005;50.082;8.988;2022-07-29T12:37:38;3.30;;;0.50;;
73699;SDS011;62005;50.082;8.988;2022-07-29T12:40:06;1.92;;;0.40;;
73699;SDS011;62005;50.082;8.988;2022-07-29T12:42:32;2.97;;;0.45;;
73699;SDS011;62005;50.082;8.988;2022-07-29T12:44:58;2.47;;;0.50;;
73699;SDS011;62005;50.082;8.988;2022-07-29T12:47:24;3.42;;;0.60;;
73699;SDS011;62005;50.082;8.988;2022-07-29T12:49:50;2.03;;;0.50;;
73699;SDS011;62005;50.082;8.988;2022-07-29T12:52:32;3.90;;;0.68;;
73699;SDS011;62005;50.082;8.988;2022-07-29T12:54:59;2.72;;;0.50;;
73699;SDS011;62005;50.082;8.988;2022-07-29T12:57:24;2.95;;;0.57;;
73699;SDS011;62005;50.082;8.988;2022-07-29T13:02:25;2.47;;;0.45;;
73699;SDS011;62005;50.082;8.988;2022-07-29T13:04:57;2.38;;;0.40;;
73699;SDS011;62005;50.082;8.988;2022-07-29T13:07:28;2.90;;;0.30;;
73699;SDS011;62005;50.082;8.988;2022-07-29T13:10:16;3.15;;;0.60;;
73699;SDS011;62005;50.082;8.988;2022-07-29T13:17:52;1.70;;;0.43;;
73699;SDS011;62005;50.082;8.988;2022-07-29T13:20:18;2.47;;;0.50;;
73699;SDS011;62005;50.082;8.988;2022-07-29T13:22:47;2.78;;;0.50;;
73699;SDS011;62005;50.082;8.988;2022-07-29T13:25:13;2.90;;;0.60;;
73699;SDS011;62005;50.082;8.988;2022-07-29T13:27:38;1.63;;;0.30;;
73699;SDS011;62005;50.082;8.988;2022-07-29T13:30:09;2.13;;;0.40;;
73699;SDS011;62005;50.082;8.988;2022-07-29T13:35:05;1.85;;;0.45;;
73699;SDS011;62005;50.082;8.988;2022-07-29T13:37:33;2.35;;;0.50;;
73699;SDS011;62005;50.082;8.988;2022-07-29T13:40:00;3.90;;;0.50;;
73699;SDS011;62005;50.082;8.988;2022-07-29T13:42:28;3.40;;;0.50;;
73699;SDS011;62005;50.082;8.988;2022-07-29T13:44:53;2.10;;;0.50;;
73699;SDS011;62005;50.082;8.988;2022-07-29T13:47:19;3.83;;;0.40;;
73699;SDS011;62005;50.082;8.988;2022-07-29T13:49:44;2.10;;;0.50;;
73699;SDS011;62005;50.082;8.988;2022-07-29T13:52:10;1.98;;;0.40;;
73699;SDS011;62005;50.082;8.988;2022-07-29T13:54:35;2.17;;;0.60;;
73699;SDS011;62005;50.082;8.988;2022-07-29T13:57:03;3.63;;;0.50;;
73699;SDS011;62005;50.082;8.988;2022-07-29T13:59:31;2.67;;;0.73;;
73699;SDS011;62005;50.082;8.988;2022-07-29T14:01:57;4.13;;;0.60;;
73699;SDS011;62005;50.082;8.988;2022-07-29T14:04:22;1.55;;;0.43;;
73699;SDS011;62005;50.082;8.988;2022-07-29T14:06:51;1.63;;;0.65;;
73699;SDS011;62005;50.082;8.988;2022-07-29T14:09:17;1.80;;;0.45;;
73699;SDS011;62005;50.082;8.988;2022-07-29T14:11:42;2.08;;;0.38;;
73699;SDS011;62005;50.082;8.988;2022-07-29T14:14:08;2.83;;;0.40;;
73699;SDS011;62005;50.082;8.988;2022-07-29T14:16:35;1.95;;;0.73;;
73699;SDS011;62005;50.082;8.988;2022-07-29T14:19:00;2.58;;;0.63;;
73699;SDS011;62005;50.082;8.988;2022-07-29T14:21:25;1.50;;;0.43;;
73699;SDS011;62005;50.082;8.988;2022-07-29T14:23:51;5.13;;;0.70;;
73699;SDS011;62005;50.082;8.988;2022-07-29T14:26:17;2.00;;;0.55;;
73699;SDS011;62005;50.082;8.988;2022-07-29T14:28:43;3.00;;;0.65;;
73699;SDS011;62005;50.082;8.988;2022-07-29T14:31:09;1.20;;;0.30;;
73699;SDS011;62005;50.082;8.988;2022-07-29T14:33:34;2.28;;;0.70;;
73699;SDS011;62005;50.082;8.988;2022-07-29T14:36:00;5.30;;;0.70;;
73699;SDS011;62005;50.082;8.988;2022-07-29T14:38:25;3.60;;;0.82;;
73699;SDS011;62005;50.082;8.988;2022-07-29T14:40:51;3.53;;;0.77;;
73699;SDS011;62005;50.082;8.988;2022-07-29T14:43:17;3.47;;;0.55;;
73699;SDS011;62005;50.082;8.988;2022-07-29T14:45:43;1.40;;;0.50;;
73699;SDS011;62005;50.082;8.988;2022-07-29T14:48:08;2.38;;;0.50;;
73699;SDS011;62005;50.082;8.988;2022-07-29T14:50:36;2.05;;;0.43;;
73699;SDS011;62005;50.082;8.988;2022-07-29T14:55:28;3.50;;;0.63;;
73699;SDS011;62005;50.082;8.988;2022-07-29T14:57:54;5.38;;;0.98;;
73699;SDS011;62005;50.082;8.988;2022-07-29T15:00:19;9.13;;;1.20;;
73699;SDS011;62005;50.082;8.988;2022-07-29T15:02:46;3.92;;;0.75;;
73699;SDS011;62005;50.082;8.988;2022-07-29T15:05:11;8.23;;;1.10;;
73699;SDS011;62005;50.082;8.988;2022-07-29T15:07:37;5.28;;;1.17;;
73699;SDS011;62005;50.082;8.988;2022-07-29T15:10:02;3.58;;;0.82;;
73699;SDS011;62005;50.082;8.988;2022-07-29T15:12:29;4.72;;;0.98;;
73699;SDS011;62005;50.082;8.988;2022-07-29T15:14:55;5.68;;;1.20;;
73699;SDS011;62005;50.082;8.988;2022-07-29T15:17:21;3.38;;;0.80;;
73699;SDS011;62005;50.082;8.988;2022-07-29T15:19:46;2.85;;;0.88;;
73699;SDS011;62005;50.082;8.988;2022-07-29T15:22:12;6.63;;;1.40;;
73699;SDS011;62005;50.082;8.988;2022-07-29T15:24:37;4.80;;;1.40;;
73699;SDS011;62005;50.082;8.988;2022-07-29T15:27:02;3.70;;;1.23;;
73699;SDS011;62005;50.082;8.988;2022-07-29T15:29:28;3.45;;;1.35;;
73699;SDS011;62005;50.082;8.988;2022-07-29T15:31:53;7.13;;;1.40;;
73699;SDS011;62005;50.082;8.988;2022-07-29T15:34:19;6.47;;;1.48;;
73699;SDS011;62005;50.082;8.988;2022-07-29T15:39:11;9.50;;;2.80;;
73699;SDS011;62005;50.082;8.988;2022-07-29T15:41:36;5.07;;;2.03;;
73699;SDS011;62005;50.082;8.988;2022-07-29T15:44:03;4.45;;;2.00;;
73699;SDS011;62005;50.082;8.988;2022-07-29T15:46:28;6.53;;;2.10;;
73699;SDS011;62005;50.082;8.988;2022-07-29T15:49:12;5.22;;;2.20;;
73699;SDS011;62005;50.082;8.988;2022-07-29T15:51:38;4.50;;;1.80;;
73699;SDS011;62005;50.082;8.988;2022-07-29T15:54:03;4.50;;;1.73;;
73699;SDS011;62005;50.082;8.988;2022-07-29T15:56:29;5.25;;;1.70;;
73699;SDS011;62005;50.082;8.988;2022-07-29T16:01:21;4.78;;;1.80;;
73699;SDS011;62005;50.082;8.988;2022-07-29T16:03:48;2.72;;;1.35;;
73699;SDS011;62005;50.082;8.988;2022-07-29T16:06:13;2.97;;;1.60;;
73699;SDS011;62005;50.082;8.988;2022-07-29T16:08:39;4.93;;;1.50;;
73699;SDS011;62005;50.082;8.988;2022-07-29T16:11:04;7.50;;;1.35;;
73699;SDS011;62005;50.082;8.988;2022-07-29T16:13:30;4.97;;;1.13;;